Time;durP1;ratioP1;P1;durP2;ratioP2;P2;SDS_P1;SDS_P2;PMS_P1;PMS_P2;Temp;Humidity;BMP_temperature;BMP_pressure;BME280_temperature;BME280_humidity;BME280_pressure;Samples;Min_cycle;Max_cycle;Signal;HPM_P1;HPM_P2
2022/10/16 00:01:35;;;;;;;4.33;2.63;;;14.10;99.90;;;;;;5022627;28;20202;-76
2022/10/16 00:04:03;;;;;;;6.50;2.90;;;13.70;99.90;;;;;;5037727;28;20213;-76
2022/10/16 00:06:31;;;;;;;6.47;2.97;;;13.40;99.90;;;;;;5043005;28;20701;-78
2022/10/16 00:08:58;;;;;;;6.53;2.90;;;13.30;99.90;;;;;;5019862;28;20229;-77
2022/10/16 00:11:33;;;;;;;8.40;3.30;;;13.60;99.90;;;;;;5045302;28;20240;-77
2022/10/16 00:14:02;;;;;;;8.53;3.10;;;13.50;99.90;;;;;;5044590;28;20205;-77
2022/10/16 00:16:31;;;;;;;4.83;2.70;;;13.50;99.90;;;;;;5039428;28;20292;-78
2022/10/16 00:18:58;;;;;;;5.17;2.67;;;13.40;99.90;;;;;;5034372;28;20703;-79
2022/10/16 00:21:27;;;;;;;12.70;2.90;;;13.40;99.90;;;;;;5022383;28;20202;-77
2022/10/16 00:24:00;;;;;;;4.60;2.70;;;13.30;99.90;;;;;;5038063;28;20237;-77
2022/10/16 00:26:28;;;;;;;7.97;2.73;;;13.30;99.90;;;;;;5043101;28;20229;-77
2022/10/16 00:28:58;;;;;;;11.00;3.33;;;13.20;99.90;;;;;;5046863;28;20221;-78
2022/10/16 00:31:26;;;;;;;8.97;3.30;;;13.20;99.90;;;;;;5025213;28;20201;-78
2022/10/16 00:34:01;;;;;;;5.23;2.83;;;13.10;99.90;;;;;;5044782;28;20664;-78
2022/10/16 00:36:31;;;;;;;7.73;3.30;;;13.20;99.90;;;;;;5012625;28;20208;-78
2022/10/16 00:39:00;;;;;;;6.07;3.20;;;13.20;99.90;;;;;;5008135;28;20201;-78
2022/10/16 00:41:28;;;;;;;7.07;3.13;;;13.20;99.90;;;;;;5043183;28;20544;-78
2022/10/16 00:44:04;;;;;;;4.67;3.00;;;13.20;99.90;;;;;;5039851;28;20201;-77
2022/10/16 00:46:40;;;;;;;5.80;3.30;;;13.20;99.90;;;;;;5037791;28;20209;-76
2022/10/16 00:49:15;;;;;;;7.00;3.17;;;13.20;99.90;;;;;;5037663;28;20725;-77
2022/10/16 00:51:43;;;;;;;6.60;3.20;;;13.30;99.90;;;;;;5048045;28;20262;-77
2022/10/16 00:54:16;;;;;;;6.30;3.50;;;13.30;99.90;;;;;;5028684;28;20694;-77
2022/10/16 00:56:44;;;;;;;5.63;2.60;;;13.60;99.90;;;;;;5056682;28;20248;-78
2022/10/16 00:59:24;;;;;;;6.93;3.77;;;13.20;99.90;;;;;;5036821;28;20231;-75
2022/10/16 01:01:53;;;;;;;4.40;2.97;;;13.20;99.90;;;;;;5030562;28;20240;-77
2022/10/16 01:04:20;;;;;;;5.47;2.70;;;13.10;99.90;;;;;;5043103;28;20279;-77
2022/10/16 01:07:14;;;;;;;4.83;2.90;;;13.10;99.90;;;;;;5048099;28;20296;-77
2022/10/16 01:09:51;;;;;;;6.33;2.93;;;13.10;99.90;;;;;;5050445;28;20248;-78
2022/10/16 01:12:39;;;;;;;6.13;3.17;;;13.00;99.90;;;;;;5034086;28;20274;-77
2022/10/16 01:15:35;;;;;;;5.73;3.13;;;13.10;99.90;;;;;;5030004;28;20271;-77
2022/10/16 01:18:25;;;;;;;7.10;3.30;;;13.10;99.90;;;;;;5036907;28;20241;-77
2022/10/16 01:20:58;;;;;;;9.00;3.37;;;13.10;99.90;;;;;;5045076;28;20811;-78
2022/10/16 01:23:31;;;;;;;7.10;3.37;;;13.10;99.90;;;;;;5029206;28;20683;-78
2022/10/16 01:26:14;;;;;;;9.37;3.37;;;13.00;99.90;;;;;;5046581;28;20620;-78
2022/10/16 01:28:44;;;;;;;6.90;3.93;;;13.10;99.90;;;;;;5046451;28;20204;-77
2022/10/16 01:31:17;;;;;;;6.30;4.20;;;13.10;99.90;;;;;;5045901;28;20205;-79
2022/10/16 01:33:50;;;;;;;6.53;4.07;;;13.10;99.90;;;;;;5047782;28;20542;-77
2022/10/16 01:36:23;;;;;;;6.73;3.57;;;13.40;99.90;;;;;;5052931;28;20592;-77
2022/10/16 01:38:56;;;;;;;6.93;3.20;;;13.10;99.90;;;;;;5044304;28;20194;-78
2022/10/16 01:41:31;;;;;;;5.37;3.07;;;13.10;99.90;;;;;;5038819;28;20251;-77
2022/10/16 01:44:04;;;;;;;6.37;3.27;;;13.10;99.90;;;;;;5040170;28;20652;-78
2022/10/16 01:46:31;;;;;;;6.37;3.10;;;13.10;99.90;;;;;;5043693;28;20660;-78
2022/10/16 01:49:01;;;;;;;5.10;3.30;;;13.10;99.90;;;;;;5025269;28;20698;-77
2022/10/16 01:51:29;;;;;;;4.77;3.07;;;13.20;99.90;;;;;;5046959;28;20205;-77
2022/10/16 01:53:59;;;;;;;7.70;3.27;;;13.20;99.90;;;;;;5039123;28;20210;-77
2022/10/16 01:56:28;;;;;;;7.23;3.03;;;13.20;99.90;;;;;;5050280;28;20253;-77
2022/10/16 01:59:06;;;;;;;6.03;3.10;;;13.20;99.90;;;;;;5027696;28;20231;-78
2022/10/16 02:01:37;;;;;;;4.97;3.60;;;13.30;99.90;;;;;;5047297;28;20204;-76
2022/10/16 02:04:13;;;;;;;5.10;3.00;;;13.30;99.90;;;;;;5033843;28;20217;-77
2022/10/16 02:06:44;;;;;;;5.10;2.80;;;13.40;99.90;;;;;;5022001;28;20197;-77
2022/10/16 02:09:11;;;;;;;7.53;3.27;;;13.30;99.90;;;;;;5042996;28;20292;-77
2022/10/16 02:11:38;;;;;;;4.50;3.30;;;13.40;99.90;;;;;;5042863;28;20239;-76
2022/10/16 02:14:06;;;;;;;6.30;3.40;;;13.40;99.90;;;;;;5040182;28;20611;-77
2022/10/16 02:16:42;;;;;;;5.40;3.43;;;13.50;99.90;;;;;;5036801;28;20265;-78
2022/10/16 02:19:09;;;;;;;5.10;3.97;;;13.50;99.90;;;;;;5040240;28;20263;-77
2022/10/16 02:21:54;;;;;;;4.20;2.90;;;13.80;99.90;;;;;;5041585;28;20232;-78
2022/10/16 02:24:38;;;;;;;8.37;3.03;;;13.60;99.90;;;;;;5041315;28;20201;-77
2022/10/16 02:27:21;;;;;;;4.43;3.20;;;13.60;99.90;;;;;;5038694;28;20757;-76
2022/10/16 02:29:58;;;;;;;6.57;3.30;;;13.70;99.90;;;;;;5043901;28;20205;-77
2022/10/16 02:32:30;;;;;;;6.07;2.97;;;13.70;99.90;;;;;;5045114;28;20243;-77
2022/10/16 02:34:59;;;;;;;5.40;3.37;;;13.70;99.90;;;;;;5034086;28;20307;-77
2022/10/16 02:37:27;;;;;;;5.80;3.60;;;13.70;99.90;;;;;;5039130;28;20208;-77
2022/10/16 02:39:56;;;;;;;6.27;3.33;;;13.70;99.90;;;;;;5044995;28;20296;-77
2022/10/16 02:42:36;;;;;;;5.40;3.47;;;13.70;99.90;;;;;;5041273;28;20229;-76
2022/10/16 02:45:04;;;;;;;6.83;3.90;;;13.70;99.90;;;;;;5023025;28;20232;-77
2022/10/16 02:47:34;;;;;;;12.40;4.10;;;13.70;99.90;;;;;;5033200;28;20589;-77
2022/10/16 02:50:01;;;;;;;5.70;3.70;;;13.70;99.90;;;;;;5041156;28;20229;-77
2022/10/16 02:52:28;;;;;;;7.83;3.47;;;13.70;99.90;;;;;;5043534;28;20285;-77
2022/10/16 02:54:55;;;;;;;5.77;3.80;;;13.80;99.90;;;;;;5040987;28;20410;-76
2022/10/16 02:57:22;;;;;;;6.90;3.70;;;13.80;99.90;;;;;;5024570;28;20271;-76
2022/10/16 02:59:49;;;;;;;5.27;3.63;;;13.70;99.90;;;;;;5046384;28;20213;-76
2022/10/16 03:02:16;;;;;;;5.67;4.13;;;13.80;99.90;;;;;;5035123;28;20233;-76
2022/10/16 03:04:46;;;;;;;6.33;3.70;;;13.70;99.90;;;;;;5026662;28;20257;-78
2022/10/16 03:07:12;;;;;;;5.20;3.63;;;13.80;99.90;;;;;;5023032;28;20243;-77
2022/10/16 03:09:39;;;;;;;4.70;3.17;;;13.70;99.90;;;;;;5044113;28;20197;-77
2022/10/16 03:12:06;;;;;;;5.20;3.60;;;13.90;99.90;;;;;;5040630;28;20244;-76
2022/10/16 03:14:34;;;;;;;6.30;3.50;;;13.80;99.90;;;;;;5037932;28;20205;-77
2022/10/16 03:17:00;;;;;;;5.87;3.60;;;13.80;99.90;;;;;;5037729;28;20342;-76
2022/10/16 03:19:27;;;;;;;7.47;3.23;;;13.70;99.90;;;;;;5027306;28;20214;-77
2022/10/16 03:21:54;;;;;;;6.80;3.47;;;13.80;99.90;;;;;;5048261;28;20263;-76
2022/10/16 03:24:22;;;;;;;5.10;3.87;;;13.80;99.90;;;;;;5050136;28;20310;-77
2022/10/16 03:26:49;;;;;;;4.23;3.33;;;13.80;99.90;;;;;;5044064;28;20214;-76
2022/10/16 03:29:16;;;;;;;7.97;4.63;;;13.80;99.90;;;;;;5025247;28;20302;-77
2022/10/16 03:31:43;;;;;;;6.20;3.57;;;13.80;99.90;;;;;;5042097;28;20267;-75
2022/10/16 03:34:10;;;;;;;5.50;3.27;;;13.80;99.90;;;;;;5046824;28;20281;-77
2022/10/16 03:36:36;;;;;;;5.97;3.47;;;13.80;99.90;;;;;;5036670;28;20632;-79
2022/10/16 03:39:03;;;;;;;4.10;3.33;;;13.70;99.90;;;;;;5042780;28;20205;-78
2022/10/16 03:41:30;;;;;;;5.47;3.80;;;13.70;99.90;;;;;;5046014;28;20266;-77
2022/10/16 03:43:57;;;;;;;4.07;3.60;;;13.70;99.90;;;;;;5043241;28;20206;-78
2022/10/16 03:46:24;;;;;;;7.63;3.57;;;13.80;99.90;;;;;;5038892;28;20733;-77
2022/10/16 03:48:51;;;;;;;5.57;3.60;;;13.60;99.90;;;;;;5023509;28;20836;-76
2022/10/16 03:51:17;;;;;;;4.93;3.60;;;13.50;99.90;;;;;;5044440;28;20458;-75
2022/10/16 03:53:44;;;;;;;7.23;3.53;;;13.50;99.90;;;;;;5028124;28;20254;-76
2022/10/16 03:56:11;;;;;;;5.70;3.40;;;13.50;99.90;;;;;;5038218;28;20302;-77
2022/10/16 03:58:38;;;;;;;5.83;3.30;;;13.50;99.90;;;;;;5045232;28;20219;-76
2022/10/16 04:01:05;;;;;;;6.63;3.30;;;13.50;99.90;;;;;;5046315;28;20237;-78
2022/10/16 04:03:32;;;;;;;4.97;3.40;;;13.50;99.90;;;;;;5023338;28;20202;-76
2022/10/16 04:05:59;;;;;;;3.93;3.33;;;13.50;99.90;;;;;;5052225;28;20331;-76
2022/10/16 04:08:26;;;;;;;5.57;3.93;;;13.70;99.90;;;;;;5042316;28;20573;-77
2022/10/16 04:10:53;;;;;;;5.63;3.50;;;13.50;99.90;;;;;;5046104;28;20623;-77
2022/10/16 04:13:20;;;;;;;6.53;3.80;;;13.40;99.90;;;;;;5038120;28;20283;-77
2022/10/16 04:15:47;;;;;;;5.47;4.00;;;13.40;99.90;;;;;;5035961;28;20283;-76
2022/10/16 04:18:14;;;;;;;4.30;3.07;;;13.40;99.90;;;;;;5022245;28;20209;-78
2022/10/16 04:20:41;;;;;;;9.20;3.40;;;13.40;99.90;;;;;;5033988;28;20264;-77
2022/10/16 04:23:07;;;;;;;3.73;3.17;;;13.40;99.90;;;;;;5042750;28;20291;-76
2022/10/16 04:25:34;;;;;;;5.13;3.13;;;13.30;99.90;;;;;;5039650;28;20297;-77
2022/10/16 04:28:03;;;;;;;6.77;3.00;;;13.30;99.90;;;;;;5031393;28;20205;-75
2022/10/16 04:30:29;;;;;;;5.47;2.67;;;13.40;99.90;;;;;;5041537;28;20205;-77
2022/10/16 04:32:56;;;;;;;4.47;3.40;;;13.40;99.90;;;;;;5044252;28;20236;-80
2022/10/16 04:35:23;;;;;;;5.50;3.07;;;13.20;99.90;;;;;;5040673;28;20241;-76
2022/10/16 04:37:50;;;;;;;4.03;2.83;;;13.30;99.90;;;;;;5021261;28;20572;-76
2022/10/16 04:40:17;;;;;;;4.90;3.07;;;13.30;99.90;;;;;;5024310;28;20198;-77
2022/10/16 04:42:44;;;;;;;3.97;2.63;;;13.30;99.90;;;;;;5044023;28;20331;-76
2022/10/16 04:45:11;;;;;;;5.50;2.80;;;13.30;99.90;;;;;;5022375;28;20213;-77
2022/10/16 04:47:43;;;;;;;3.97;2.70;;;13.30;99.90;;;;;;5041920;28;20604;-76
2022/10/16 04:50:12;;;;;;;4.53;3.17;;;13.30;99.90;;;;;;5020974;28;20308;-80
2022/10/16 04:52:40;;;;;;;5.47;2.73;;;13.30;99.90;;;;;;5039890;28;20618;-79
2022/10/16 04:55:07;;;;;;;4.47;2.70;;;13.20;99.90;;;;;;5030763;28;20268;-78
2022/10/16 04:57:34;;;;;;;8.23;3.03;;;13.30;99.90;;;;;;5035857;28;20248;-74
2022/10/16 05:00:01;;;;;;;4.93;2.83;;;13.20;99.90;;;;;;5042880;28;20622;-76
2022/10/16 05:02:28;;;;;;;4.27;2.80;;;13.20;99.90;;;;;;5043489;28;20205;-77
2022/10/16 05:04:55;;;;;;;3.97;3.23;;;13.20;99.90;;;;;;5042999;28;20271;-75
2022/10/16 05:07:22;;;;;;;4.67;2.60;;;13.20;99.90;;;;;;5038255;28;20686;-76
2022/10/16 05:09:49;;;;;;;4.67;2.80;;;13.20;99.90;;;;;;5046410;28;20209;-76
2022/10/16 05:12:16;;;;;;;4.80;3.30;;;13.20;99.90;;;;;;5043365;28;20602;-76
2022/10/16 05:14:43;;;;;;;3.60;2.50;;;13.20;99.90;;;;;;5023927;28;20209;-74
2022/10/16 05:17:10;;;;;;;5.17;2.53;;;13.10;99.90;;;;;;5016765;28;20257;-76
2022/10/16 05:19:36;;;;;;;4.80;2.90;;;13.10;99.90;;;;;;5043572;28;20637;-77
2022/10/16 05:22:03;;;;;;;6.17;3.10;;;13.10;99.90;;;;;;5036068;28;20765;-75
2022/10/16 05:24:30;;;;;;;4.13;2.60;;;13.10;99.90;;;;;;5039268;28;20201;-77
2022/10/16 05:26:57;;;;;;;3.20;2.63;;;13.20;99.90;;;;;;5042996;28;20627;-76
2022/10/16 05:29:24;;;;;;;6.10;3.10;;;13.10;99.90;;;;;;5043777;28;20250;-77
2022/10/16 05:31:52;;;;;;;8.63;2.77;;;13.10;99.90;;;;;;5042340;28;20209;-77
2022/10/16 05:34:20;;;;;;;4.77;3.10;;;13.10;99.90;;;;;;5043037;28;20231;-76
2022/10/16 05:36:47;;;;;;;4.23;2.83;;;13.10;99.90;;;;;;5051833;28;20240;-76
2022/10/16 05:39:15;;;;;;;5.27;3.17;;;13.10;99.90;;;;;;5054730;28;20322;-75
2022/10/16 05:41:42;;;;;;;5.13;3.17;;;13.10;99.90;;;;;;5053667;28;20250;-75
2022/10/16 05:44:09;;;;;;;8.67;3.10;;;13.10;99.90;;;;;;5054155;28;20236;-80
2022/10/16 05:46:36;;;;;;;7.97;3.57;;;13.10;99.90;;;;;;5044711;28;20213;-78
2022/10/16 05:49:04;;;;;;;6.93;3.50;;;13.10;99.90;;;;;;5045123;28;20217;-77
2022/10/16 05:51:30;;;;;;;4.67;2.97;;;12.90;99.90;;;;;;5050552;28;20219;-76
2022/10/16 05:53:57;;;;;;;5.57;3.40;;;13.00;99.90;;;;;;5035398;28;20201;-76
2022/10/16 05:56:24;;;;;;;5.83;3.53;;;13.00;99.90;;;;;;5036724;28;20224;-75
2022/10/16 05:58:51;;;;;;;6.73;3.70;;;13.00;99.90;;;;;;5057853;28;20200;-79
2022/10/16 06:01:20;;;;;;;8.80;3.47;;;13.00;99.90;;;;;;5047248;28;20209;-75
2022/10/16 06:03:47;;;;;;;10.23;3.90;;;13.00;99.90;;;;;;5048896;28;20213;-76
2022/10/16 06:06:17;;;;;;;5.47;4.00;;;13.00;99.90;;;;;;5029041;28;20293;-76
2022/10/16 06:08:48;;;;;;;5.67;3.67;;;13.00;99.90;;;;;;5040554;28;20209;-76
2022/10/16 06:11:20;;;;;;;5.60;3.40;;;13.20;99.90;;;;;;5028575;28;20198;-79
2022/10/16 06:13:51;;;;;;;6.80;3.50;;;12.90;99.90;;;;;;5045951;28;20200;-76
2022/10/16 06:16:18;;;;;;;6.50;4.13;;;12.80;99.90;;;;;;5062600;28;20654;-77
2022/10/16 06:18:46;;;;;;;7.47;4.37;;;12.80;99.90;;;;;;5062798;28;20219;-78
2022/10/16 06:21:24;;;;;;;9.63;4.23;;;12.90;99.90;;;;;;5041559;28;20339;-78
2022/10/16 06:23:52;;;;;;;8.37;4.20;;;12.90;99.90;;;;;;5042925;28;20210;-78
2022/10/16 06:26:21;;;;;;;6.83;3.93;;;12.90;99.90;;;;;;5028633;28;20678;-77
2022/10/16 06:28:49;;;;;;;7.27;4.50;;;12.70;99.90;;;;;;5047450;28;20259;-77
2022/10/16 06:31:16;;;;;;;7.93;3.97;;;12.90;99.90;;;;;;5047907;28;20202;-76
2022/10/16 06:33:45;;;;;;;5.60;3.37;;;12.90;99.90;;;;;;5034961;28;20291;-77
2022/10/16 06:36:16;;;;;;;5.23;3.63;;;13.00;99.90;;;;;;5041002;28;20268;-76
2022/10/16 06:38:44;;;;;;;5.40;3.90;;;13.00;99.90;;;;;;5026754;28;20209;-76
2022/10/16 06:41:16;;;;;;;7.53;3.67;;;13.10;99.90;;;;;;5024810;28;20279;-76
2022/10/16 06:43:46;;;;;;;7.10;3.40;;;13.20;99.90;;;;;;5048015;28;20202;-74
2022/10/16 06:46:16;;;;;;;4.90;4.00;;;13.20;99.90;;;;;;5044710;28;20657;-78
2022/10/16 06:48:43;;;;;;;6.27;3.60;;;13.20;99.90;;;;;;5048157;28;20245;-78
2022/10/16 06:51:22;;;;;;;5.30;3.50;;;13.20;99.90;;;;;;5049691;28;20266;-76
2022/10/16 06:53:54;;;;;;;6.07;3.70;;;13.30;99.90;;;;;;5029292;28;20205;-78
2022/10/16 06:56:31;;;;;;;10.80;4.63;;;13.30;99.90;;;;;;5029821;28;20223;-78
2022/10/16 06:58:59;;;;;;;7.47;3.47;;;13.30;99.90;;;;;;5045176;28;20206;-78
2022/10/16 07:01:27;;;;;;;3.47;3.17;;;13.40;99.90;;;;;;5042525;28;20255;-79
2022/10/16 07:03:54;;;;;;;5.80;3.33;;;13.40;99.90;;;;;;5046098;28;20244;-77
2022/10/16 07:06:22;;;;;;;6.20;3.67;;;13.40;99.90;;;;;;5044113;28;20632;-76
2022/10/16 07:08:50;;;;;;;8.30;4.17;;;13.40;99.90;;;;;;5041893;28;20236;-77
2022/10/16 07:11:19;;;;;;;5.97;4.17;;;13.50;99.90;;;;;;5024905;28;20214;-76
2022/10/16 07:13:47;;;;;;;6.27;3.63;;;13.50;99.90;;;;;;5028104;28;20604;-78
2022/10/16 07:16:23;;;;;;;7.03;3.40;;;13.90;99.90;;;;;;5049519;28;20546;-77
2022/10/16 07:18:51;;;;;;;6.53;4.23;;;13.60;99.90;;;;;;5025548;28;20208;-79
2022/10/16 07:21:22;;;;;;;6.13;3.73;;;13.60;99.90;;;;;;5028719;28;20202;-78
2022/10/16 07:23:54;;;;;;;7.87;3.57;;;13.80;99.90;;;;;;5046069;28;20232;-80
2022/10/16 07:26:22;;;;;;;5.47;3.07;;;13.80;99.90;;;;;;5033770;28;20624;-79
2022/10/16 07:28:49;;;;;;;6.40;3.70;;;14.00;99.90;;;;;;5025677;28;20205;-78
2022/10/16 07:31:18;;;;;;;4.27;3.40;;;13.80;99.90;;;;;;5021623;28;20209;-77
2022/10/16 07:33:47;;;;;;;8.27;4.03;;;13.90;99.90;;;;;;5047815;28;21760;-78
2022/10/16 07:36:16;;;;;;;9.20;3.93;;;13.90;99.90;;;;;;5036605;28;20230;-76
2022/10/16 07:38:46;;;;;;;6.17;3.30;;;13.90;99.90;;;;;;5040780;28;20232;-77
2022/10/16 07:41:15;;;;;;;5.43;3.53;;;13.70;99.90;;;;;;5039412;28;20294;-77
2022/10/16 07:43:47;;;;;;;5.63;3.87;;;14.00;99.90;;;;;;5040551;28;20218;-78
2022/10/16 07:46:16;;;;;;;5.07;3.27;;;14.10;99.90;;;;;;5041502;28;20230;-77
2022/10/16 07:48:47;;;;;;;6.77;3.67;;;14.10;99.90;;;;;;5029452;28;20205;-78
2022/10/16 07:51:17;;;;;;;4.97;3.63;;;14.20;99.90;;;;;;5042649;28;20205;-75
2022/10/16 07:53:44;;;;;;;4.90;2.87;;;14.20;99.90;;;;;;5047785;28;20562;-77
2022/10/16 07:56:11;;;;;;;3.97;3.30;;;14.20;99.90;;;;;;5041080;28;20685;-77
2022/10/16 07:58:39;;;;;;;5.47;3.10;;;14.30;99.90;;;;;;5049654;28;20201;-80
2022/10/16 08:01:10;;;;;;;5.90;3.03;;;14.30;99.90;;;;;;5044055;28;20210;-80
2022/10/16 08:03:37;;;;;;;7.37;3.07;;;13.50;99.90;;;;;;5024856;28;20201;-77
2022/10/16 08:06:06;;;;;;;3.63;2.77;;;14.40;99.90;;;;;;5049559;28;20632;-76
2022/10/16 08:08:33;;;;;;;3.83;2.67;;;14.40;99.90;;;;;;5049184;28;20194;-79
2022/10/16 08:11:00;;;;;;;4.87;2.63;;;14.40;99.90;;;;;;5032208;28;20447;-80
2022/10/16 08:13:27;;;;;;;4.33;2.40;;;14.50;99.90;;;;;;5043683;28;20202;-78
2022/10/16 08:15:55;;;;;;;5.27;2.73;;;14.60;99.90;;;;;;5017671;28;20208;-78
2022/10/16 08:18:22;;;;;;;4.23;2.30;;;14.70;99.90;;;;;;5027392;28;20256;-80
2022/10/16 08:20:58;;;;;;;4.90;2.40;;;14.70;99.90;;;;;;5045381;28;20220;-79
2022/10/16 08:23:25;;;;;;;2.80;2.50;;;14.80;99.90;;;;;;5046413;28;20234;-81
2022/10/16 08:25:55;;;;;;;4.13;2.77;;;14.80;99.90;;;;;;5040537;28;20205;-80
2022/10/16 08:28:22;;;;;;;5.90;2.70;;;14.90;99.90;;;;;;5042479;28;20634;-78
2022/10/16 08:30:49;;;;;;;6.30;3.00;;;14.90;99.90;;;;;;5046039;28;20201;-79
2022/10/16 08:33:17;;;;;;;7.57;3.27;;;14.80;99.90;;;;;;5043213;28;20304;-77
2022/10/16 08:35:54;;;;;;;3.87;3.00;;;14.80;99.90;;;;;;5040112;28;20241;-79
2022/10/16 08:38:21;;;;;;;4.37;3.07;;;14.80;99.90;;;;;;5044733;28;20209;-79
2022/10/16 08:40:49;;;;;;;7.03;2.90;;;14.80;99.90;;;;;;5026003;28;20652;-78
2022/10/16 08:43:44;;;;;;;3.43;2.80;;;15.00;99.90;;;;;;5044795;28;20236;-78
2022/10/16 08:46:37;;;;;;;3.73;3.37;;;15.40;99.90;;;;;;5030057;28;20213;-78
2022/10/16 08:49:10;;;;;;;5.27;3.33;;;14.70;99.90;;;;;;5045731;28;20205;-79
2022/10/16 08:51:37;;;;;;;6.30;3.13;;;14.70;99.90;;;;;;5043110;28;20360;-78
2022/10/16 08:54:23;;;;;;;8.20;3.83;;;14.90;99.90;;;;;;5049497;28;20213;-81
2022/10/16 08:56:49;;;;;;;7.33;3.63;;;14.90;99.90;;;;;;5043201;28;20221;-78
2022/10/16 08:59:18;;;;;;;7.73;3.87;;;14.90;99.90;;;;;;5039411;28;20228;-77
2022/10/16 09:01:47;;;;;;;5.63;3.60;;;15.00;99.90;;;;;;5022662;28;20619;-76
2022/10/16 09:04:58;;;;;;;6.53;3.67;;;15.00;99.90;;;;;;5025979;28;20222;-78
2022/10/16 09:07:49;;;;;;;6.20;3.33;;;15.00;99.90;;;;;;5042818;28;20210;-82
2022/10/16 09:10:22;;;;;;;6.53;3.63;;;15.00;99.90;;;;;;5045434;28;20291;-81
2022/10/16 09:13:00;;;;;;;7.97;3.80;;;15.10;99.90;;;;;;5023651;28;20205;-79
2022/10/16 09:15:34;;;;;;;11.63;3.50;;;15.10;99.90;;;;;;5046407;28;20215;-77
2022/10/16 09:18:12;;;;;;;8.43;3.23;;;15.90;99.90;;;;;;5042051;28;20217;-77
2022/10/16 09:21:04;;;;;;;9.37;3.50;;;15.20;99.90;;;;;;5034345;28;20311;-78
2022/10/16 09:23:37;;;;;;;9.97;3.60;;;15.30;99.90;;;;;;5041020;28;20241;-79
2022/10/16 09:26:09;;;;;;;7.83;3.93;;;15.60;99.90;;;;;;5047858;28;20208;-77
2022/10/16 09:28:36;;;;;;;7.25;3.75;;;15.40;99.90;;;;;;5048601;28;20253;-81
2022/10/16 09:31:03;;;;;;;6.30;3.10;;;15.40;99.90;;;;;;5043546;28;20224;-78
2022/10/16 09:33:35;;;;;;;8.17;3.33;;;15.40;99.90;;;;;;5047013;28;20296;-79
2022/10/16 09:36:05;;;;;;;6.28;2.70;;;15.50;99.90;;;;;;5040582;28;20226;-76
2022/10/16 09:38:35;;;;;;;8.85;2.97;;;15.60;99.90;;;;;;5023871;28;20233;-78
2022/10/16 09:41:15;;;;;;;5.88;2.92;;;15.60;99.90;;;;;;5044834;28;20208;-77
2022/10/16 09:43:48;;;;;;;7.87;2.90;;;15.70;99.90;;;;;;5043697;28;20210;-80
2022/10/16 09:46:33;;;;;;;8.88;3.25;;;15.80;99.90;;;;;;5044151;28;20210;-77
2022/10/16 09:49:18;;;;;;;8.85;2.95;;;15.80;99.90;;;;;;5023076;28;20228;-78
2022/10/16 09:51:45;;;;;;;10.52;2.67;;;15.70;99.90;;;;;;5044562;28;20232;-78
2022/10/16 09:54:20;;;;;;;5.95;2.92;;;15.90;99.90;;;;;;5049707;28;20259;-77
2022/10/16 09:56:53;;;;;;;10.85;2.88;;;16.00;99.90;;;;;;5034564;28;20264;-78
2022/10/16 09:59:26;;;;;;;6.90;2.83;;;16.10;99.90;;;;;;5028357;28;20209;-78
2022/10/16 10:01:54;;;;;;;11.05;2.63;;;16.10;99.90;;;;;;5043425;28;20573;-79
2022/10/16 10:04:23;;;;;;;11.52;2.65;;;16.20;99.90;;;;;;5031636;28;20709;-79
2022/10/16 10:06:56;;;;;;;10.43;2.42;;;16.20;99.90;;;;;;5043212;28;20233;-78
2022/10/16 10:09:37;;;;;;;10.50;2.80;;;16.20;99.90;;;;;;5025497;28;20201;-80
2022/10/16 10:12:05;;;;;;;11.10;2.75;;;16.30;99.90;;;;;;5042630;28;20236;-79
2022/10/16 10:14:37;;;;;;;8.45;2.88;;;16.40;99.90;;;;;;5042963;28;20312;-79
2022/10/16 10:17:06;;;;;;;8.27;2.53;;;16.50;99.90;;;;;;5043787;28;20691;-78
2022/10/16 10:19:54;;;;;;;7.50;2.15;;;16.60;99.90;;;;;;5020487;28;20702;-78
2022/10/16 10:22:41;;;;;;;10.73;2.72;;;16.70;99.90;;;;;;5041392;28;20886;-79
2022/10/16 10:25:11;;;;;;;10.45;3.28;;;16.80;99.90;;;;;;5047961;28;20206;-80
2022/10/16 10:28:06;;;;;;;8.45;2.53;;;16.80;99.90;;;;;;5043192;28;20216;-78
2022/10/16 10:30:58;;;;;;;8.68;2.65;;;16.90;99.90;;;;;;5053420;28;20355;-79
2022/10/16 10:33:47;;;;;;;15.63;3.08;;;17.10;99.90;;;;;;5046655;28;20205;-78
2022/10/16 10:36:50;;;;;;;9.20;2.70;;;17.30;99.90;;;;;;5043839;28;20213;-78
2022/10/16 10:39:24;;;;;;;10.35;2.55;;;17.40;99.90;;;;;;5010390;28;20209;-79
2022/10/16 10:42:18;;;;;;;14.82;3.10;;;17.50;99.90;;;;;;5043069;28;20300;-78
2022/10/16 10:45:14;;;;;;;12.50;2.55;;;17.60;99.90;;;;;;5023203;28;20210;-80
2022/10/16 10:48:20;;;;;;;14.60;2.70;;;17.50;99.90;;;;;;5045931;28;20193;-78
2022/10/16 10:50:55;;;;;;;12.45;2.85;;;17.80;99.90;;;;;;5040934;28;20240;-80
2022/10/16 10:53:44;;;;;;;9.13;2.53;;;17.90;99.90;;;;;;5046078;28;20197;-79
2022/10/16 10:56:25;;;;;;;9.00;2.15;;;17.90;99.90;;;;;;5045106;28;20218;-80
2022/10/16 10:59:07;;;;;;;13.50;2.75;;;17.80;99.90;;;;;;5038295;28;20226;-79
2022/10/16 11:01:33;;;;;;;11.95;2.53;;;17.70;99.90;;;;;;5041594;28;20292;-78
2022/10/16 11:04:12;;;;;;;11.25;2.15;;;17.70;99.90;;;;;;5036932;28;20213;-81
2022/10/16 11:07:15;;;;;;;7.57;2.63;;;17.60;99.90;;;;;;5042532;28;20240;-79
2022/10/16 11:09:47;;;;;;;8.10;1.98;;;17.60;99.90;;;;;;5043455;28;20251;-79
2022/10/16 11:12:29;;;;;;;6.75;2.28;;;17.60;99.90;;;;;;5040597;28;20201;-80
2022/10/16 11:15:04;;;;;;;8.40;1.90;;;17.50;99.90;;;;;;5040862;28;20285;-79
2022/10/16 11:17:41;;;;;;;9.75;2.45;;;17.50;99.90;;;;;;5039548;28;20224;-78
2022/10/16 11:20:15;;;;;;;8.35;1.98;;;17.50;99.90;;;;;;5043978;28;20248;-79
2022/10/16 11:22:59;;;;;;;13.27;2.35;;;16.90;99.90;;;;;;5039952;28;20649;-79
2022/10/16 11:25:29;;;;;;;9.23;2.30;;;17.50;99.90;;;;;;5043341;28;20211;-80
2022/10/16 11:28:23;;;;;;;6.97;2.35;;;17.30;99.90;;;;;;5042697;28;20628;-79
2022/10/16 11:31:11;;;;;;;7.47;2.08;;;17.20;99.90;;;;;;5000438;28;20237;-79
2022/10/16 11:33:46;;;;;;;7.20;2.50;;;17.30;99.90;;;;;;5038578;28;20743;-82
2022/10/16 11:36:34;;;;;;;8.93;2.40;;;17.30;99.90;;;;;;5018258;28;20261;-79
2022/10/16 11:39:01;;;;;;;9.57;2.67;;;17.40;99.90;;;;;;5020347;28;20232;-80
2022/10/16 11:41:28;;;;;;;11.13;2.53;;;17.50;99.90;;;;;;5019099;28;20214;-81
2022/10/16 11:44:28;;;;;;;6.03;2.08;;;17.60;99.90;;;;;;5019124;28;20241;-79
2022/10/16 11:47:38;;;;;;;9.05;2.40;;;17.80;99.90;;;;;;5025829;28;20233;-79
2022/10/16 11:50:43;;;;;;;5.72;2.08;;;17.70;99.90;;;;;;5015980;28;20219;-79
2022/10/16 11:53:21;;;;;;;4.43;1.83;;;17.90;99.90;;;;;;5022635;28;20289;-80
2022/10/16 11:55:48;;;;;;;7.63;2.00;;;17.90;99.90;;;;;;5017473;28;20214;-78
2022/10/16 11:58:21;;;;;;;8.50;1.88;;;17.90;99.90;;;;;;5021650;28;20234;-80
2022/10/16 12:01:00;;;;;;;9.75;2.42;;;17.50;99.90;;;;;;5019025;28;20194;-79
2022/10/16 12:04:04;;;;;;;12.68;2.38;;;18.20;99.90;;;;;;5008508;28;20571;-80
2022/10/16 12:06:40;;;;;;;14.77;4.28;;;18.40;99.90;;;;;;5008270;28;20685;-81
2022/10/16 12:09:18;;;;;;;12.10;3.65;;;18.50;99.90;;;;;;4998973;28;20304;-79
2022/10/16 12:11:45;;;;;;;9.90;1.98;;;18.60;99.90;;;;;;5011233;28;20627;-78
2022/10/16 12:14:12;;;;;;;13.90;2.80;;;18.70;99.90;;;;;;5021833;28;20206;-79
2022/10/16 12:17:00;;;;;;;5.32;1.85;;;18.70;99.90;;;;;;5017106;28;20221;-79
2022/10/16 12:19:29;;;;;;;8.45;2.03;;;18.80;99.90;;;;;;5017445;28;20238;-78
2022/10/16 12:21:59;;;;;;;7.60;2.17;;;18.80;99.90;;;;;;5024780;28;20233;-79
2022/10/16 12:24:29;;;;;;;10.77;2.05;;;18.90;99.90;;;;;;5015958;28;20241;-81
2022/10/16 12:26:57;;;;;;;8.65;1.90;;;19.00;99.90;;;;;;5028881;28;20744;-77
2022/10/16 12:29:34;;;;;;;11.90;2.22;;;19.00;99.90;;;;;;5020410;28;20234;-78
2022/10/16 12:32:23;;;;;;;6.57;1.70;;;18.90;99.90;;;;;;5001217;28;20295;-79
2022/10/16 12:35:31;;;;;;;5.68;1.67;;;19.00;99.90;;;;;;5014210;28;20260;-78
2022/10/16 12:38:17;;;;;;;9.05;1.90;;;19.10;99.90;;;;;;5046054;28;20591;-79
2022/10/16 12:40:47;;;;;;;8.00;1.88;;;19.10;99.90;;;;;;5023606;28;20201;-78
2022/10/16 12:43:20;;;;;;;8.55;1.98;;;19.30;99.90;;;;;;5022248;28;20220;-79
2022/10/16 12:46:01;;;;;;;7.15;1.70;;;19.20;99.90;;;;;;5043280;28;20204;-80
2022/10/16 12:48:30;;;;;;;7.05;1.88;;;19.30;99.90;;;;;;5036960;28;20205;-80
2022/10/16 12:51:36;;;;;;;9.23;2.05;;;19.20;99.90;;;;;;5039536;28;20290;-79
2022/10/16 12:54:03;;;;;;;7.70;2.03;;;19.30;99.90;;;;;;5038331;28;20301;-81
2022/10/16 12:57:26;;;;;;;7.47;2.50;;;19.20;99.90;;;;;;5035398;28;20610;-80
2022/10/16 13:00:03;;;;;;;12.52;2.92;;;19.10;99.90;;;;;;4943655;28;20209;-80
2022/10/16 13:02:58;;;;;;;11.48;2.38;;;19.00;99.90;;;;;;4937964;28;20219;-81
2022/10/16 13:05:45;;;;;;;7.28;1.65;;;18.90;99.90;;;;;;5015702;28;20274;-80
2022/10/16 13:08:35;;;;;;;9.68;2.13;;;18.80;99.90;;;;;;5040117;28;20572;-80
2022/10/16 13:11:31;;;;;;;12.02;3.15;;;18.70;99.90;;;;;;5021184;28;20198;-79
2022/10/16 13:14:24;;;;;;;7.05;1.60;;;18.60;99.90;;;;;;5025816;28;20200;-79
2022/10/16 13:17:12;;;;;;;8.27;1.85;;;18.70;99.90;;;;;;5032801;28;21178;-81